sensor_id;sensor_type;location;lat;lon;timestamp;P1;durP1;ratioP1;P2;durP2;ratioP2
20095;SDS011;10207;50.942;6.900;2023-04-06T00:01:57;27.77;;;9.18;;
20095;SDS011;10207;50.942;6.900;2023-04-06T00:04:23;16.08;;;8.68;;
20095;SDS011;10207;50.942;6.900;2023-04-06T00:06:49;18.57;;;9.27;;
20095;SDS011;10207;50.942;6.900;2023-04-06T00:09:15;18.13;;;8.97;;
20095;SDS011;10207;50.942;6.900;2023-04-06T00:11:41;16.40;;;9.73;;
20095;SDS011;10207;50.942;6.900;2023-04-06T00:14:07;17.47;;;9.60;;
20095;SDS011;10207;50.942;6.900;2023-04-06T00:16:33;18.53;;;9.90;;
20095;SDS011;10207;50.942;6.900;2023-04-06T00:18:59;16.75;;;8.35;;
20095;SDS011;10207;50.942;6.900;2023-04-06T00:21:25;18.33;;;9.43;;
20095;SDS011;10207;50.942;6.900;2023-04-06T00:23:51;17.67;;;10.10;;
20095;SDS011;10207;50.942;6.900;2023-04-06T00:26:17;17.02;;;10.10;;
20095;SDS011;10207;50.942;6.900;2023-04-06T00:28:46;24.25;;;9.85;;
20095;SDS011;10207;50.942;6.900;2023-04-06T00:31:12;15.52;;;9.82;;
20095;SDS011;10207;50.942;6.900;2023-04-06T00:33:38;20.60;;;9.73;;
20095;SDS011;10207;50.942;6.900;2023-04-06T00:36:04;19.35;;;10.13;;
20095;SDS011;10207;50.942;6.900;2023-04-06T00:38:31;18.40;;;9.37;;
20095;SDS011;10207;50.942;6.900;2023-04-06T00:40:57;17.40;;;9.80;;
20095;SDS011;10207;50.942;6.900;2023-04-06T00:43:23;20.00;;;10.33;;
20095;SDS011;10207;50.942;6.900;2023-04-06T00:45:50;19.88;;;10.60;;
20095;SDS011;10207;50.942;6.900;2023-04-06T00:48:16;15.07;;;9.40;;
20095;SDS011;10207;50.942;6.900;2023-04-06T00:50:43;19.33;;;9.03;;
20095;SDS011;10207;50.942;6.900;2023-04-06T00:53:09;17.53;;;10.33;;
20095;SDS011;10207;50.942;6.900;2023-04-06T00:55:35;19.38;;;9.70;;
20095;SDS011;10207;50.942;6.900;2023-04-06T00:58:02;21.17;;;10.37;;
20095;SDS011;10207;50.942;6.900;2023-04-06T01:00:32;21.03;;;11.20;;
20095;SDS011;10207;50.942;6.900;2023-04-06T01:03:00;18.67;;;11.17;;
20095;SDS011;10207;50.942;6.900;2023-04-06T01:05:35;26.13;;;10.75;;
20095;SDS011;10207;50.942;6.900;2023-04-06T01:08:08;19.73;;;9.53;;
20095;SDS011;10207;50.942;6.900;2023-04-06T01:10:35;19.03;;;10.30;;
20095;SDS011;10207;50.942;6.900;2023-04-06T01:13:14;17.97;;;10.70;;
20095;SDS011;10207;50.942;6.900;2023-04-06T01:16:00;17.10;;;10.57;;
20095;SDS011;10207;50.942;6.900;2023-04-06T01:18:32;22.52;;;10.90;;
20095;SDS011;10207;50.942;6.900;2023-04-06T01:21:11;20.87;;;10.40;;
20095;SDS011;10207;50.942;6.900;2023-04-06T01:23:47;21.07;;;9.67;;
20095;SDS011;10207;50.942;6.900;2023-04-06T01:26:16;19.17;;;10.20;;
20095;SDS011;10207;50.942;6.900;2023-04-06T01:28:42;16.40;;;9.33;;
20095;SDS011;10207;50.942;6.900;2023-04-06T01:31:21;18.73;;;11.10;;
20095;SDS011;10207;50.942;6.900;2023-04-06T01:33:50;23.07;;;9.97;;
20095;SDS011;10207;50.942;6.900;2023-04-06T01:36:19;19.60;;;10.83;;
20095;SDS011;10207;50.942;6.900;2023-04-06T01:38:52;13.63;;;8.97;;
20095;SDS011;10207;50.942;6.900;2023-04-06T01:41:21;16.43;;;9.77;;
20095;SDS011;10207;50.942;6.900;2023-04-06T01:43:51;16.13;;;9.80;;
20095;SDS011;10207;50.942;6.900;2023-04-06T01:46:22;16.50;;;9.37;;
20095;SDS011;10207;50.942;6.900;2023-04-06T01:48:49;16.13;;;9.57;;
20095;SDS011;10207;50.942;6.900;2023-04-06T01:51:34;15.10;;;8.63;;
20095;SDS011;10207;50.942;6.900;2023-04-06T01:54:03;14.17;;;8.93;;
20095;SDS011;10207;50.942;6.900;2023-04-06T01:56:55;13.60;;;8.67;;
20095;SDS011;10207;50.942;6.900;2023-04-06T01:59:28;14.33;;;8.70;;
20095;SDS011;10207;50.942;6.900;2023-04-06T02:01:55;13.80;;;7.87;;
20095;SDS011;10207;50.942;6.900;2023-04-06T02:04:23;16.10;;;8.83;;
20095;SDS011;10207;50.942;6.900;2023-04-06T02:06:54;13.63;;;8.30;;
20095;SDS011;10207;50.942;6.900;2023-04-06T02:09:23;15.43;;;8.43;;
20095;SDS011;10207;50.942;6.900;2023-04-06T02:11:49;15.15;;;8.80;;
20095;SDS011;10207;50.942;6.900;2023-04-06T02:14:15;15.93;;;9.30;;
20095;SDS011;10207;50.942;6.900;2023-04-06T02:16:46;14.40;;;8.57;;
20095;SDS011;10207;50.942;6.900;2023-04-06T02:19:12;11.13;;;7.40;;
20095;SDS011;10207;50.942;6.900;2023-04-06T02:21:38;16.00;;;9.10;;
20095;SDS011;10207;50.942;6.900;2023-04-06T02:24:04;12.03;;;7.83;;
20095;SDS011;10207;50.942;6.900;2023-04-06T02:26:31;14.97;;;8.57;;
20095;SDS011;10207;50.942;6.900;2023-04-06T02:28:57;10.87;;;7.17;;
20095;SDS011;10207;50.942;6.900;2023-04-06T02:31:23;15.70;;;8.03;;
20095;SDS011;10207;50.942;6.900;2023-04-06T02:33:50;15.50;;;8.17;;
20095;SDS011;10207;50.942;6.900;2023-04-06T02:36:16;13.57;;;7.80;;
20095;SDS011;10207;50.942;6.900;2023-04-06T02:38:42;14.32;;;8.38;;
20095;SDS011;10207;50.942;6.900;2023-04-06T02:41:08;18.03;;;7.83;;
20095;SDS011;10207;50.942;6.900;2023-04-06T02:43:35;12.23;;;6.60;;
20095;SDS011;10207;50.942;6.900;2023-04-06T02:46:11;9.80;;;5.97;;
20095;SDS011;10207;50.942;6.900;2023-04-06T02:48:38;10.90;;;7.10;;
20095;SDS011;10207;50.942;6.900;2023-04-06T02:51:05;12.80;;;6.93;;
20095;SDS011;10207;50.942;6.900;2023-04-06T02:53:31;12.33;;;6.63;;
20095;SDS011;10207;50.942;6.900;2023-04-06T02:55:58;12.53;;;7.33;;
20095;SDS011;10207;50.942;6.900;2023-04-06T02:58:30;10.60;;;6.17;;
20095;SDS011;10207;50.942;6.900;2023-04-06T03:00:57;9.27;;;6.40;;
20095;SDS011;10207;50.942;6.900;2023-04-06T03:03:23;12.60;;;6.82;;
20095;SDS011;10207;50.942;6.900;2023-04-06T03:05:49;10.97;;;6.50;;
20095;SDS011;10207;50.942;6.900;2023-04-06T03:08:22;12.23;;;6.60;;
20095;SDS011;10207;50.942;6.900;2023-04-06T03:10:50;10.80;;;6.67;;
20095;SDS011;10207;50.942;6.900;2023-04-06T03:13:17;9.00;;;5.80;;
20095;SDS011;10207;50.942;6.900;2023-04-06T03:15:56;11.03;;;6.67;;
20095;SDS011;10207;50.942;6.900;2023-04-06T03:18:22;10.90;;;6.38;;
20095;SDS011;10207;50.942;6.900;2023-04-06T03:20:53;12.63;;;6.33;;
20095;SDS011;10207;50.942;6.900;2023-04-06T03:23:20;11.07;;;6.13;;
20095;SDS011;10207;50.942;6.900;2023-04-06T03:25:50;13.77;;;6.67;;
20095;SDS011;10207;50.942;6.900;2023-04-06T03:28:19;10.90;;;6.83;;
20095;SDS011;10207;50.942;6.900;2023-04-06T03:30:52;13.33;;;6.07;;
20095;SDS011;10207;50.942;6.900;2023-04-06T03:33:30;17.25;;;7.63;;
20095;SDS011;10207;50.942;6.900;2023-04-06T03:35:57;9.77;;;6.10;;
20095;SDS011;10207;50.942;6.900;2023-04-06T03:38:25;14.13;;;6.87;;
20095;SDS011;10207;50.942;6.900;2023-04-06T03:40:51;11.20;;;7.15;;
20095;SDS011;10207;50.942;6.900;2023-04-06T03:43:22;13.73;;;7.33;;
20095;SDS011;10207;50.942;6.900;2023-04-06T03:45:48;13.38;;;7.03;;
20095;SDS011;10207;50.942;6.900;2023-04-06T03:48:14;15.63;;;6.90;;
20095;SDS011;10207;50.942;6.900;2023-04-06T03:50:42;10.77;;;6.60;;
20095;SDS011;10207;50.942;6.900;2023-04-06T03:53:07;11.47;;;7.37;;
20095;SDS011;10207;50.942;6.900;2023-04-06T03:55:34;12.10;;;7.07;;
20095;SDS011;10207;50.942;6.900;2023-04-06T03:58:00;13.03;;;7.23;;
20095;SDS011;10207;50.942;6.900;2023-04-06T04:00:26;11.40;;;7.00;;
20095;SDS011;10207;50.942;6.900;2023-04-06T04:02:54;15.77;;;7.63;;
20095;SDS011;10207;50.942;6.900;2023-04-06T04:05:20;13.27;;;8.03;;
20095;SDS011;10207;50.942;6.900;2023-04-06T04:07:51;12.20;;;8.00;;
20095;SDS011;10207;50.942;6.900;2023-04-06T04:10:19;12.13;;;7.83;;
20095;SDS011;10207;50.942;6.900;2023-04-06T04:12:46;15.52;;;7.78;;
20095;SDS011;10207;50.942;6.900;2023-04-06T04:15:11;11.90;;;7.37;;
20095;SDS011;10207;50.942;6.900;2023-04-06T04:17:38;13.90;;;8.43;;
20095;SDS011;10207;50.942;6.900;2023-04-06T04:20:04;12.73;;;7.87;;
20095;SDS011;10207;50.942;6.900;2023-04-06T04:22:30;14.17;;;8.93;;
20095;SDS011;10207;50.942;6.900;2023-04-06T04:24:57;17.57;;;8.77;;
20095;SDS011;10207;50.942;6.900;2023-04-06T04:27:24;16.87;;;8.60;;
20095;SDS011;10207;50.942;6.900;2023-04-06T04:29:51;18.37;;;8.77;;
20095;SDS011;10207;50.942;6.900;2023-04-06T04:32:17;16.50;;;8.87;;
20095;SDS011;10207;50.942;6.900;2023-04-06T04:34:44;17.43;;;9.47;;
20095;SDS011;10207;50.942;6.900;2023-04-06T04:37:19;13.30;;;7.90;;
20095;SDS011;10207;50.942;6.900;2023-04-06T04:39:50;12.53;;;7.97;;
20095;SDS011;10207;50.942;6.900;2023-04-06T04:42:16;11.93;;;8.20;;
20095;SDS011;10207;50.942;6.900;2023-04-06T04:44:48;16.37;;;8.33;;
20095;SDS011;10207;50.942;6.900;2023-04-06T04:47:20;13.70;;;8.20;;
20095;SDS011;10207;50.942;6.900;2023-04-06T04:49:47;14.13;;;8.03;;
20095;SDS011;10207;50.942;6.900;2023-04-06T04:52:19;15.87;;;8.53;;
20095;SDS011;10207;50.942;6.900;2023-04-06T04:54:56;14.07;;;7.83;;
20095;SDS011;10207;50.942;6.900;2023-04-06T04:57:26;13.40;;;7.67;;
20095;SDS011;10207;50.942;6.900;2023-04-06T04:59:52;15.27;;;8.13;;
20095;SDS011;10207;50.942;6.900;2023-04-06T05:02:18;15.07;;;7.40;;
20095;SDS011;10207;50.942;6.900;2023-04-06T05:05:08;13.00;;;7.90;;
20095;SDS011;10207;50.942;6.900;2023-04-06T05:07:34;11.67;;;7.43;;
20095;SDS011;10207;50.942;6.900;2023-04-06T05:10:01;17.03;;;7.80;;
20095;SDS011;10207;50.942;6.900;2023-04-06T05:12:31;14.03;;;7.90;;
20095;SDS011;10207;50.942;6.900;2023-04-06T05:15:08;10.47;;;6.30;;
20095;SDS011;10207;50.942;6.900;2023-04-06T05:17:34;12.27;;;7.23;;
20095;SDS011;10207;50.942;6.900;2023-04-06T05:20:01;18.50;;;7.63;;
20095;SDS011;10207;50.942;6.900;2023-04-06T05:22:30;12.18;;;7.10;;
20095;SDS011;10207;50.942;6.900;2023-04-06T05:25:02;11.90;;;7.93;;
20095;SDS011;10207;50.942;6.900;2023-04-06T05:27:30;10.73;;;6.10;;
20095;SDS011;10207;50.942;6.900;2023-04-06T05:29:56;14.45;;;6.22;;
20095;SDS011;10207;50.942;6.900;2023-04-06T05:32:24;12.18;;;7.00;;
20095;SDS011;10207;50.942;6.900;2023-04-06T05:34:51;13.32;;;8.23;;
20095;SDS011;10207;50.942;6.900;2023-04-06T05:37:17;14.20;;;6.50;;
20095;SDS011;10207;50.942;6.900;2023-04-06T05:39:43;11.70;;;6.60;;
20095;SDS011;10207;50.942;6.900;2023-04-06T05:42:09;10.38;;;6.68;;
20095;SDS011;10207;50.942;6.900;2023-04-06T05:44:57;15.80;;;7.00;;
20095;SDS011;10207;50.942;6.900;2023-04-06T05:47:23;13.25;;;6.63;;
20095;SDS011;10207;50.942;6.900;2023-04-06T05:49:57;11.98;;;6.63;;
20095;SDS011;10207;50.942;6.900;2023-04-06T05:52:33;10.25;;;6.15;;
20095;SDS011;10207;50.942;6.900;2023-04-06T05:54:59;10.02;;;6.25;;
20095;SDS011;10207;50.942;6.900;2023-04-06T05:57:25;10.70;;;6.05;;
20095;SDS011;10207;50.942;6.900;2023-04-06T05:59:53;12.35;;;7.22;;
20095;SDS011;10207;50.942;6.900;2023-04-06T06:02:21;9.80;;;6.53;;
20095;SDS011;10207;50.942;6.900;2023-04-06T06:04:50;10.43;;;5.85;;
20095;SDS011;10207;50.942;6.900;2023-04-06T06:07:17;12.20;;;4.97;;
20095;SDS011;10207;50.942;6.900;2023-04-06T06:09:50;11.20;;;6.45;;
20095;SDS011;10207;50.942;6.900;2023-04-06T06:12:21;10.93;;;6.85;;
20095;SDS011;10207;50.942;6.900;2023-04-06T06:14:49;10.90;;;6.43;;
20095;SDS011;10207;50.942;6.900;2023-04-06T06:17:15;9.27;;;5.38;;
20095;SDS011;10207;50.942;6.900;2023-04-06T06:19:44;11.40;;;6.55;;
20095;SDS011;10207;50.942;6.900;2023-04-06T06:22:10;12.95;;;5.78;;
20095;SDS011;10207;50.942;6.900;2023-04-06T06:24:40;11.68;;;5.63;;
20095;SDS011;10207;50.942;6.900;2023-04-06T06:27:06;10.57;;;5.88;;
20095;SDS011;10207;50.942;6.900;2023-04-06T06:29:35;8.50;;;4.57;;
20095;SDS011;10207;50.942;6.900;2023-04-06T06:32:01;13.23;;;6.30;;
20095;SDS011;10207;50.942;6.900;2023-04-06T06:34:27;9.75;;;6.40;;
20095;SDS011;10207;50.942;6.900;2023-04-06T06:36:55;9.27;;;6.35;;
20095;SDS011;10207;50.942;6.900;2023-04-06T06:39:21;11.30;;;6.88;;
20095;SDS011;10207;50.942;6.900;2023-04-06T06:41:49;9.27;;;5.55;;
20095;SDS011;10207;50.942;6.900;2023-04-06T06:44:16;9.25;;;5.93;;
20095;SDS011;10207;50.942;6.900;2023-04-06T06:46:42;11.95;;;5.47;;
20095;SDS011;10207;50.942;6.900;2023-04-06T06:49:09;9.93;;;6.13;;
20095;SDS011;10207;50.942;6.900;2023-04-06T06:51:36;11.20;;;6.20;;
20095;SDS011;10207;50.942;6.900;2023-04-06T06:54:02;13.63;;;6.55;;
20095;SDS011;10207;50.942;6.900;2023-04-06T06:56:28;14.45;;;6.78;;
20095;SDS011;10207;50.942;6.900;2023-04-06T06:58:55;12.25;;;5.93;;
20095;SDS011;10207;50.942;6.900;2023-04-06T07:01:21;12.20;;;6.28;;
20095;SDS011;10207;50.942;6.900;2023-04-06T07:03:48;11.23;;;6.00;;
20095;SDS011;10207;50.942;6.900;2023-04-06T07:06:14;8.90;;;6.05;;
20095;SDS011;10207;50.942;6.900;2023-04-06T07:08:40;15.98;;;5.40;;
20095;SDS011;10207;50.942;6.900;2023-04-06T07:11:06;11.75;;;6.30;;
20095;SDS011;10207;50.942;6.900;2023-04-06T07:13:32;13.35;;;5.85;;
20095;SDS011;10207;50.942;6.900;2023-04-06T07:15:59;16.10;;;7.22;;
20095;SDS011;10207;50.942;6.900;2023-04-06T07:18:27;10.05;;;6.10;;
20095;SDS011;10207;50.942;6.900;2023-04-06T07:20:53;9.65;;;6.30;;
20095;SDS011;10207;50.942;6.900;2023-04-06T07:23:19;14.75;;;7.15;;
20095;SDS011;10207;50.942;6.900;2023-04-06T07:25:45;13.90;;;6.25;;
20095;SDS011;10207;50.942;6.900;2023-04-06T07:28:11;10.77;;;7.00;;
20095;SDS011;10207;50.942;6.900;2023-04-06T07:30:38;11.30;;;6.53;;
20095;SDS011;10207;50.942;6.900;2023-04-06T07:33:04;13.93;;;7.40;;
20095;SDS011;10207;50.942;6.900;2023-04-06T07:35:32;21.95;;;11.48;;
20095;SDS011;10207;50.942;6.900;2023-04-06T07:37:58;18.27;;;7.18;;
20095;SDS011;10207;50.942;6.900;2023-04-06T07:40:24;27.58;;;14.38;;
20095;SDS011;10207;50.942;6.900;2023-04-06T07:42:53;16.05;;;8.23;;
20095;SDS011;10207;50.942;6.900;2023-04-06T07:45:19;16.98;;;9.52;;
20095;SDS011;10207;50.942;6.900;2023-04-06T07:47:46;15.02;;;8.25;;
20095;SDS011;10207;50.942;6.900;2023-04-06T07:50:12;16.30;;;7.47;;
20095;SDS011;10207;50.942;6.900;2023-04-06T07:52:38;16.15;;;7.07;;
20095;SDS011;10207;50.942;6.900;2023-04-06T07:55:05;9.80;;;6.55;;
20095;SDS011;10207;50.942;6.900;2023-04-06T07:57:31;11.25;;;6.20;;
20095;SDS011;10207;50.942;6.900;2023-04-06T07:59:57;12.70;;;6.78;;
20095;SDS011;10207;50.942;6.900;2023-04-06T08:02:23;14.07;;;6.78;;
20095;SDS011;10207;50.942;6.900;2023-04-06T08:04:49;10.82;;;6.15;;
20095;SDS011;10207;50.942;6.900;2023-04-06T08:07:15;13.18;;;6.53;;
20095;SDS011;10207;50.942;6.900;2023-04-06T08:09:41;13.38;;;5.95;;
20095;SDS011;10207;50.942;6.900;2023-04-06T08:12:07;8.85;;;6.03;;
20095;SDS011;10207;50.942;6.900;2023-04-06T08:14:33;15.07;;;6.75;;
20095;SDS011;10207;50.942;6.900;2023-04-06T08:16:59;12.32;;;6.20;;
20095;SDS011;10207;50.942;6.900;2023-04-06T08:19:25;9.98;;;5.82;;
20095;SDS011;10207;50.942;6.900;2023-04-06T08:21:51;11.40;;;6.43;;
20095;SDS011;10207;50.942;6.900;2023-04-06T08:24:17;12.13;;;6.75;;
20095;SDS011;10207;50.942;6.900;2023-04-06T08:26:43;15.50;;;7.25;;
20095;SDS011;10207;50.942;6.900;2023-04-06T08:29:09;14.20;;;6.70;;
20095;SDS011;10207;50.942;6.900;2023-04-06T08:31:35;11.43;;;5.93;;
20095;SDS011;10207;50.942;6.900;2023-04-06T08:34:03;13.35;;;7.45;;
20095;SDS011;10207;50.942;6.900;2023-04-06T08:36:29;12.05;;;7.18;;
20095;SDS011;10207;50.942;6.900;2023-04-06T08:38:55;11.60;;;5.93;;
20095;SDS011;10207;50.942;6.900;2023-04-06T08:41:21;11.18;;;6.70;;
20095;SDS011;10207;50.942;6.900;2023-04-06T08:43:54;15.02;;;6.93;;
20095;SDS011;10207;50.942;6.900;2023-04-06T08:46:22;11.90;;;7.28;;
20095;SDS011;10207;50.942;6.900;2023-04-06T08:48:54;13.15;;;7.15;;
20095;SDS011;10207;50.942;6.900;2023-04-06T08:51:21;11.38;;;6.47;;
20095;SDS011;10207;50.942;6.900;2023-04-06T08:53:48;15.38;;;8.05;;
20095;SDS011;10207;50.942;6.900;2023-04-06T08:56:15;14.85;;;7.25;;
20095;SDS011;10207;50.942;6.900;2023-04-06T08:58:41;14.13;;;7.15;;
20095;SDS011;10207;50.942;6.900;2023-04-06T09:01:08;25.52;;;11.40;;
20095;SDS011;10207;50.942;6.900;2023-04-06T09:03:36;52.85;;;22.92;;
20095;SDS011;10207;50.942;6.900;2023-04-06T09:06:03;49.05;;;21.88;;
20095;SDS011;10207;50.942;6.900;2023-04-06T09:08:29;28.20;;;14.65;;
20095;SDS011;10207;50.942;6.900;2023-04-06T09:10:55;31.85;;;15.23;;
20095;SDS011;10207;50.942;6.900;2023-04-06T09:13:21;29.02;;;14.77;;
20095;SDS011;10207;50.942;6.900;2023-04-06T09:15:57;16.85;;;8.20;;
20095;SDS011;10207;50.942;6.900;2023-04-06T09:18:30;12.90;;;8.18;;
20095;SDS011;10207;50.942;6.900;2023-04-06T09:21:00;11.82;;;7.07;;
20095;SDS011;10207;50.942;6.900;2023-04-06T09:23:27;12.98;;;7.35;;
20095;SDS011;10207;50.942;6.900;2023-04-06T09:26:04;12.45;;;8.00;;
20095;SDS011;10207;50.942;6.900;2023-04-06T09:28:40;13.52;;;7.60;;
20095;SDS011;10207;50.942;6.900;2023-04-06T09:31:06;12.25;;;6.97;;
20095;SDS011;10207;50.942;6.900;2023-04-06T09:33:32;13.75;;;6.90;;
20095;SDS011;10207;50.942;6.900;2023-04-06T09:35:58;11.35;;;7.22;;
20095;SDS011;10207;50.942;6.900;2023-04-06T09:38:24;16.80;;;7.63;;
20095;SDS011;10207;50.942;6.900;2023-04-06T09:40:50;13.48;;;7.78;;
20095;SDS011;10207;50.942;6.900;2023-04-06T09:43:23;16.80;;;7.82;;
20095;SDS011;10207;50.942;6.900;2023-04-06T09:45:50;13.63;;;8.18;;
20095;SDS011;10207;50.942;6.900;2023-04-06T09:48:17;28.00;;;9.73;;
20095;SDS011;10207;50.942;6.900;2023-04-06T09:50:43;14.40;;;8.00;;
20095;SDS011;10207;50.942;6.900;2023-04-06T09:53:10;13.73;;;7.57;;
20095;SDS011;10207;50.942;6.900;2023-04-06T09:55:42;13.13;;;8.27;;
20095;SDS011;10207;50.942;6.900;2023-04-06T09:58:12;15.32;;;7.57;;
20095;SDS011;10207;50.942;6.900;2023-04-06T10:00:48;14.10;;;7.70;;
20095;SDS011;10207;50.942;6.900;2023-04-06T10:03:21;15.77;;;8.30;;
20095;SDS011;10207;50.942;6.900;2023-04-06T10:05:56;19.13;;;7.60;;
20095;SDS011;10207;50.942;6.900;2023-04-06T10:08:24;13.80;;;8.07;;
20095;SDS011;10207;50.942;6.900;2023-04-06T10:10:54;15.73;;;7.28;;
20095;SDS011;10207;50.942;6.900;2023-04-06T10:13:20;20.20;;;9.10;;
20095;SDS011;10207;50.942;6.900;2023-04-06T10:15:46;16.23;;;8.90;;
20095;SDS011;10207;50.942;6.900;2023-04-06T10:18:12;13.38;;;7.85;;
20095;SDS011;10207;50.942;6.900;2023-04-06T10:20:40;13.32;;;8.30;;
20095;SDS011;10207;50.942;6.900;2023-04-06T10:23:15;13.23;;;8.48;;
20095;SDS011;10207;50.942;6.900;2023-04-06T10:25:55;14.88;;;9.35;;
20095;SDS011;10207;50.942;6.900;2023-04-06T10:28:22;16.05;;;7.78;;
20095;SDS011;10207;50.942;6.900;2023-04-06T10:30:48;16.77;;;8.63;;
20095;SDS011;10207;50.942;6.900;2023-04-06T10:33:14;11.15;;;7.45;;
20095;SDS011;10207;50.942;6.900;2023-04-06T10:35:40;16.23;;;8.93;;
20095;SDS011;10207;50.942;6.900;2023-04-06T10:38:06;15.95;;;8.68;;
20095;SDS011;10207;50.942;6.900;2023-04-06T10:40:36;15.27;;;8.57;;
20095;SDS011;10207;50.942;6.900;2023-04-06T10:43:10;18.08;;;8.80;;
20095;SDS011;10207;50.942;6.900;2023-04-06T10:45:36;18.75;;;9.40;;
20095;SDS011;10207;50.942;6.900;2023-04-06T10:48:16;16.80;;;8.07;;
20095;SDS011;10207;50.942;6.900;2023-04-06T10:50:48;14.18;;;8.20;;
20095;SDS011;10207;50.942;6.900;2023-04-06T10:53:24;17.60;;;8.77;;
20095;SDS011;10207;50.942;6.900;2023-04-06T10:55:51;15.95;;;8.48;;
20095;SDS011;10207;50.942;6.900;2023-04-06T10:58:17;13.63;;;8.25;;
20095;SDS011;10207;50.942;6.900;2023-04-06T11:00:44;15.90;;;9.10;;
20095;SDS011;10207;50.942;6.900;2023-04-06T11:03:10;14.50;;;8.02;;
20095;SDS011;10207;50.942;6.900;2023-04-06T11:05:36;17.42;;;8.90;;
20095;SDS011;10207;50.942;6.900;2023-04-06T11:08:02;15.60;;;7.55;;
20095;SDS011;10207;50.942;6.900;2023-04-06T11:10:28;17.67;;;8.65;;
20095;SDS011;10207;50.942;6.900;2023-04-06T11:12:56;18.05;;;9.23;;
20095;SDS011;10207;50.942;6.900;2023-04-06T11:15:22;20.13;;;9.25;;
20095;SDS011;10207;50.942;6.900;2023-04-06T11:17:48;17.67;;;9.57;;
20095;SDS011;10207;50.942;6.900;2023-04-06T11:20:15;19.08;;;9.30;;
20095;SDS011;10207;50.942;6.900;2023-04-06T11:22:48;18.10;;;10.05;;
20095;SDS011;10207;50.942;6.900;2023-04-06T11:25:13;17.88;;;8.40;;
20095;SDS011;10207;50.942;6.900;2023-04-06T11:27:39;18.27;;;9.45;;
20095;SDS011;10207;50.942;6.900;2023-04-06T11:30:06;16.55;;;8.93;;
20095;SDS011;10207;50.942;6.900;2023-04-06T11:32:39;15.88;;;8.93;;
20095;SDS011;10207;50.942;6.900;2023-04-06T11:35:05;18.95;;;9.23;;
20095;SDS011;10207;50.942;6.900;2023-04-06T11:37:32;17.65;;;8.07;;
20095;SDS011;10207;50.942;6.900;2023-04-06T11:39:58;18.42;;;9.30;;
20095;SDS011;10207;50.942;6.900;2023-04-06T11:42:25;16.65;;;8.80;;
20095;SDS011;10207;50.942;6.900;2023-04-06T11:44:53;16.27;;;8.32;;
20095;SDS011;10207;50.942;6.900;2023-04-06T11:47:19;15.85;;;8.77;;
20095;SDS011;10207;50.942;6.900;2023-04-06T11:49:45;13.30;;;8.25;;
20095;SDS011;10207;50.942;6.900;2023-04-06T11:54:42;13.98;;;8.13;;
20095;SDS011;10207;50.942;6.900;2023-04-06T11:57:08;14.00;;;7.95;;
20095;SDS011;10207;50.942;6.900;2023-04-06T11:59:34;13.00;;;7.70;;
20095;SDS011;10207;50.942;6.900;2023-04-06T12:02:03;15.25;;;8.55;;
20095;SDS011;10207;50.942;6.900;2023-04-06T12:04:30;14.20;;;8.63;;
20095;SDS011;10207;50.942;6.900;2023-04-06T12:06:56;14.60;;;8.27;;
20095;SDS011;10207;50.942;6.900;2023-04-06T12:09:22;17.48;;;8.35;;
20095;SDS011;10207;50.942;6.900;2023-04-06T12:11:48;13.48;;;7.82;;
20095;SDS011;10207;50.942;6.900;2023-04-06T12:14:14;19.13;;;8.60;;
20095;SDS011;10207;50.942;6.900;2023-04-06T12:16:40;14.27;;;8.43;;
20095;SDS011;10207;50.942;6.900;2023-04-06T12:19:06;15.32;;;7.88;;
20095;SDS011;10207;50.942;6.900;2023-04-06T12:21:33;13.63;;;7.90;;
20095;SDS011;10207;50.942;6.900;2023-04-06T12:23:59;11.55;;;7.28;;
20095;SDS011;10207;50.942;6.900;2023-04-06T12:26:26;13.60;;;8.23;;
20095;SDS011;10207;50.942;6.900;2023-04-06T12:28:53;12.63;;;7.53;;
20095;SDS011;10207;50.942;6.900;2023-04-06T12:31:19;18.48;;;8.65;;
20095;SDS011;10207;50.942;6.900;2023-04-06T12:33:46;13.48;;;8.13;;
20095;SDS011;10207;50.942;6.900;2023-04-06T12:36:12;13.75;;;8.18;;
20095;SDS011;10207;50.942;6.900;2023-04-06T12:38:39;16.45;;;8.90;;
20095;SDS011;10207;50.942;6.900;2023-04-06T12:41:06;15.68;;;9.25;;
20095;SDS011;10207;50.942;6.900;2023-04-06T12:43:32;21.25;;;9.70;;
20095;SDS011;10207;50.942;6.900;2023-04-06T12:45:58;15.82;;;8.45;;
20095;SDS011;10207;50.942;6.900;2023-04-06T12:48:25;14.18;;;8.10;;
20095;SDS011;10207;50.942;6.900;2023-04-06T12:50:57;17.30;;;7.63;;
20095;SDS011;10207;50.942;6.900;2023-04-06T12:53:23;16.88;;;9.55;;
20095;SDS011;10207;50.942;6.900;2023-04-06T12:55:49;16.20;;;8.95;;
20095;SDS011;10207;50.942;6.900;2023-04-06T12:58:15;13.13;;;6.93;;
20095;SDS011;10207;50.942;6.900;2023-04-06T13:00:42;12.40;;;7.00;;
20095;SDS011;10207;50.942;6.900;2023-04-06T13:03:08;9.30;;;5.30;;
20095;SDS011;10207;50.942;6.900;2023-04-06T13:05:34;10.30;;;5.68;;
20095;SDS011;10207;50.942;6.900;2023-04-06T13:08:00;9.55;;;5.35;;
20095;SDS011;10207;50.942;6.900;2023-04-06T13:10:26;9.52;;;5.03;;
20095;SDS011;10207;50.942;6.900;2023-04-06T13:12:52;10.38;;;5.82;;
20095;SDS011;10207;50.942;6.900;2023-04-06T13:15:18;8.77;;;5.28;;
20095;SDS011;10207;50.942;6.900;2023-04-06T13:17:44;11.10;;;5.78;;
20095;SDS011;10207;50.942;6.900;2023-04-06T13:20:11;9.43;;;5.25;;
20095;SDS011;10207;50.942;6.900;2023-04-06T13:22:37;11.13;;;6.10;;
20095;SDS011;10207;50.942;6.900;2023-04-06T13:25:03;9.68;;;5.32;;
20095;SDS011;10207;50.942;6.900;2023-04-06T13:27:29;10.13;;;5.72;;
20095;SDS011;10207;50.942;6.900;2023-04-06T13:29:59;10.23;;;5.28;;
20095;SDS011;10207;50.942;6.900;2023-04-06T13:32:25;11.52;;;5.50;;
20095;SDS011;10207;50.942;6.900;2023-04-06T13:34:54;7.50;;;5.28;;
20095;SDS011;10207;50.942;6.900;2023-04-06T13:37:20;8.40;;;5.10;;
20095;SDS011;10207;50.942;6.900;2023-04-06T13:39:46;8.30;;;4.97;;
20095;SDS011;10207;50.942;6.900;2023-04-06T13:42:12;8.15;;;4.82;;
20095;SDS011;10207;50.942;6.900;2023-04-06T13:44:38;9.50;;;5.05;;
20095;SDS011;10207;50.942;6.900;2023-04-06T13:47:04;10.45;;;6.18;;
20095;SDS011;10207;50.942;6.900;2023-04-06T13:49:30;9.73;;;5.78;;
20095;SDS011;10207;50.942;6.900;2023-04-06T13:51:56;11.00;;;6.13;;
20095;SDS011;10207;50.942;6.900;2023-04-06T13:54:22;8.30;;;4.75;;
20095;SDS011;10207;50.942;6.900;2023-04-06T13:56:48;10.70;;;6.05;;
20095;SDS011;10207;50.942;6.900;2023-04-06T13:59:14;10.02;;;5.90;;
20095;SDS011;10207;50.942;6.900;2023-04-06T14:01:40;10.40;;;5.50;;
20095;SDS011;10207;50.942;6.900;2023-04-06T14:04:06;10.63;;;4.85;;
20095;SDS011;10207;50.942;6.900;2023-04-06T14:06:32;9.82;;;5.20;;
20095;SDS011;10207;50.942;6.900;2023-04-06T14:08:58;8.48;;;4.35;;
20095;SDS011;10207;50.942;6.900;2023-04-06T14:11:24;6.80;;;3.90;;
20095;SDS011;10207;50.942;6.900;2023-04-06T14:13:50;8.82;;;4.47;;
20095;SDS011;10207;50.942;6.900;2023-04-06T14:16:16;13.98;;;4.80;;
20095;SDS011;10207;50.942;6.900;2023-04-06T14:18:45;6.38;;;4.38;;
20095;SDS011;10207;50.942;6.900;2023-04-06T14:21:11;11.82;;;5.10;;
20095;SDS011;10207;50.942;6.900;2023-04-06T14:23:37;8.68;;;4.82;;
20095;SDS011;10207;50.942;6.900;2023-04-06T14:26:03;9.90;;;5.00;;
20095;SDS011;10207;50.942;6.900;2023-04-06T14:28:30;9.32;;;4.78;;
20095;SDS011;10207;50.942;6.900;2023-04-06T14:30:56;7.00;;;4.35;;
20095;SDS011;10207;50.942;6.900;2023-04-06T14:33:22;10.55;;;4.60;;
20095;SDS011;10207;50.942;6.900;2023-04-06T14:35:48;9.40;;;4.90;;
20095;SDS011;10207;50.942;6.900;2023-04-06T14:38:14;10.60;;;4.60;;
20095;SDS011;10207;50.942;6.900;2023-04-06T14:40:39;9.63;;;2.83;;
20095;SDS011;10207;50.942;6.900;2023-04-06T14:43:05;6.57;;;4.03;;